Hawthorne, Indiana
Current Conditions -  °F | °C
As of 10:53 AM on Thursday 18 Dec 2014 (Local Time) from KBMG Reporting Station
Overcast Overcast  
Wind Chill: 26°   Ceiling: 1400
Heat Index: 26°   Visibility: 10mi
Dew Point: 21°   Wind: 0mph
Humidity: 81%   Direction: NA
Pressure: 30.3"   Gusts: NA
Location:  38.8737°N, 86.4563°W
Report Text: KBMG 181553Z 00000KT 10SM OVC014 M03/M06 A3030 RMK AO2 SLP270 T10331061
Loading
Personal Weather Stations






























Interactive Weather Map New forecast layout! Learn more

10-Day Weather Forecast

Advertisements
Track Severe Weather on mobile